Time;durP1;ratioP1;P1;durP2;ratioP2;P2;SDS_P1;SDS_P2;PMS_P1;PMS_P2;Temp;Humidity;BMP_temperature;BMP_pressure;BME280_temperature;BME280_humidity;BME280_pressure;Samples;Min_cycle;Max_cycle;Signal;HPM_P1;HPM_P2
2023/08/09 00:00:06;;;;;;;4.05;2.40;;;18.40;52.60;;;;;;5007452;28;115799;-78
2023/08/09 00:02:34;;;;;;;6.00;3.17;;;18.50;52.70;;;;;;5007143;28;114001;-77
2023/08/09 00:05:01;;;;;;;5.57;3.42;;;18.50;52.20;;;;;;5007062;28;114618;-78
2023/08/09 00:07:28;;;;;;;5.45;2.80;;;18.50;52.10;;;;;;5006463;28;115007;-77
2023/08/09 00:09:55;;;;;;;6.00;3.60;;;18.50;52.50;;;;;;5007273;28;114717;-79
2023/08/09 00:12:23;;;;;;;5.97;3.10;;;18.50;52.10;;;;;;5008318;28;114230;-78
2023/08/09 00:14:50;;;;;;;4.68;2.92;;;18.60;51.80;;;;;;5007304;28;114708;-78
2023/08/09 00:17:18;;;;;;;5.82;2.92;;;18.60;52.00;;;;;;5007306;28;115018;-78
2023/08/09 00:19:46;;;;;;;5.20;3.08;;;18.50;52.20;;;;;;5006167;28;114746;-79
2023/08/09 00:22:13;;;;;;;5.03;2.83;;;18.60;52.10;;;;;;5006485;28;114309;-78
2023/08/09 00:24:41;;;;;;;4.90;2.83;;;18.60;52.20;;;;;;4990331;28;114573;-78
2023/08/09 00:27:08;;;;;;;5.10;3.10;;;18.60;52.10;;;;;;5007071;28;114960;-78
2023/08/09 00:29:35;;;;;;;4.68;3.00;;;18.60;52.20;;;;;;5007428;28;114802;-78
2023/08/09 00:32:02;;;;;;;4.50;2.60;;;18.70;52.00;;;;;;4990548;28;114206;-78
2023/08/09 00:34:29;;;;;;;4.63;2.50;;;18.70;52.10;;;;;;5006787;28;114285;-78
2023/08/09 00:36:56;;;;;;;6.53;2.92;;;18.70;51.80;;;;;;5006317;28;114873;-78
2023/08/09 00:39:25;;;;;;;5.00;3.10;;;18.70;51.80;;;;;;5006065;28;114693;-79
2023/08/09 00:41:52;;;;;;;6.32;3.47;;;18.70;52.00;;;;;;5006717;28;114311;-78
2023/08/09 00:44:22;;;;;;;5.68;3.08;;;18.70;51.60;;;;;;4990769;28;114358;-78
2023/08/09 00:46:50;;;;;;;5.20;3.35;;;18.70;51.90;;;;;;4988073;28;118485;-79
2023/08/09 00:49:17;;;;;;;5.63;3.42;;;18.70;52.00;;;;;;4989279;28;114771;-79
2023/08/09 00:51:44;;;;;;;5.00;3.33;;;18.70;52.00;;;;;;4973732;28;114348;-79
2023/08/09 00:54:11;;;;;;;5.45;3.20;;;18.70;51.90;;;;;;4989964;28;114354;-79
2023/08/09 00:56:38;;;;;;;4.75;2.80;;;18.70;52.00;;;;;;4988601;28;116096;-78
2023/08/09 00:59:06;;;;;;;6.03;3.88;;;18.70;52.00;;;;;;4972329;28;117887;-78
2023/08/09 01:01:33;;;;;;;4.80;3.45;;;18.70;51.80;;;;;;5006785;28;114356;-78
2023/08/09 01:04:00;;;;;;;5.90;3.70;;;18.70;51.80;;;;;;5008035;28;114407;-78
2023/08/09 01:07:03;;;;;;;4.78;2.72;;;18.70;51.70;;;;;;5006418;28;114875;-77
2023/08/09 01:09:36;;;;;;;8.00;2.85;;;18.70;51.90;;;;;;5004978;28;118911;-78
2023/08/09 01:12:11;;;;;;;4.55;3.03;;;18.60;52.20;;;;;;4973510;28;114359;-76
2023/08/09 01:14:42;;;;;;;4.85;2.92;;;18.70;52.20;;;;;;5006411;28;114430;-77
2023/08/09 01:17:10;;;;;;;4.60;2.92;;;18.60;52.20;;;;;;5006411;28;114910;-77
2023/08/09 01:19:42;;;;;;;5.05;3.10;;;18.60;52.20;;;;;;4988849;28;115944;-78
2023/08/09 01:22:15;;;;;;;5.95;3.10;;;18.60;52.10;;;;;;4989958;28;114306;-78
2023/08/09 01:24:44;;;;;;;4.78;2.95;;;18.60;52.00;;;;;;5006121;28;114205;-77
2023/08/09 01:27:11;;;;;;;5.88;3.00;;;18.60;52.00;;;;;;5006212;28;115107;-77
2023/08/09 01:29:38;;;;;;;5.78;3.50;;;18.70;52.10;;;;;;5006319;28;115859;-78
2023/08/09 01:32:05;;;;;;;5.63;3.08;;;18.70;52.00;;;;;;5006763;28;114415;-78
2023/08/09 01:34:32;;;;;;;6.25;3.10;;;18.60;52.00;;;;;;4989499;28;114412;-78
2023/08/09 01:37:06;;;;;;;4.10;2.80;;;18.50;52.30;;;;;;4970832;28;116185;-78
2023/08/09 01:39:34;;;;;;;6.97;3.85;;;18.60;52.30;;;;;;5005077;28;115246;-78
2023/08/09 01:42:01;;;;;;;5.55;2.72;;;18.60;52.30;;;;;;4989312;28;114216;-78
2023/08/09 01:44:29;;;;;;;4.72;3.00;;;18.50;52.30;;;;;;4972682;28;114283;-78
2023/08/09 01:46:56;;;;;;;4.30;2.75;;;18.60;52.30;;;;;;5005914;28;115366;-78
2023/08/09 01:49:23;;;;;;;4.00;2.85;;;18.50;52.40;;;;;;5004763;28;114568;-78
2023/08/09 01:51:53;;;;;;;5.63;3.03;;;18.50;52.50;;;;;;5006684;28;114593;-78
2023/08/09 01:54:20;;;;;;;5.20;2.92;;;18.60;52.50;;;;;;5005608;28;114364;-78
2023/08/09 01:56:48;;;;;;;5.07;3.13;;;18.60;52.40;;;;;;5004622;28;115011;-78
2023/08/09 01:59:15;;;;;;;4.90;3.20;;;18.50;52.40;;;;;;4987951;28;114776;-78
2023/08/09 02:01:43;;;;;;;4.72;2.85;;;18.50;52.40;;;;;;4988413;28;114340;-78
2023/08/09 02:04:10;;;;;;;5.03;2.72;;;18.50;52.50;;;;;;4989003;28;114390;-78
2023/08/09 02:06:38;;;;;;;5.55;2.60;;;18.50;52.40;;;;;;5005571;28;114968;-78
2023/08/09 02:09:06;;;;;;;5.50;2.60;;;18.40;52.30;;;;;;5004081;28;116928;-78
2023/08/09 02:11:33;;;;;;;6.22;2.45;;;18.30;52.20;;;;;;5006664;28;114122;-79
2023/08/09 02:14:01;;;;;;;6.57;2.50;;;18.20;52.60;;;;;;5005275;28;114500;-78
2023/08/09 02:16:28;;;;;;;6.43;2.58;;;18.00;52.80;;;;;;5004356;28;115159;-78
2023/08/09 02:18:55;;;;;;;3.45;2.10;;;18.00;52.80;;;;;;5005918;28;114867;-77
2023/08/09 02:21:22;;;;;;;6.68;3.25;;;17.90;52.70;;;;;;5006465;28;113938;-78
2023/08/09 02:23:49;;;;;;;5.60;2.60;;;17.80;53.40;;;;;;5004835;28;114464;-78
2023/08/09 02:26:18;;;;;;;5.07;2.53;;;17.90;53.00;;;;;;5004567;28;114963;-77
2023/08/09 02:28:48;;;;;;;4.88;3.08;;;17.70;53.30;;;;;;5004067;28;117576;-77
2023/08/09 02:31:15;;;;;;;4.65;2.15;;;17.70;53.70;;;;;;5005502;28;114074;-78
2023/08/09 02:33:44;;;;;;;6.43;2.38;;;17.70;53.40;;;;;;5006119;28;114269;-78
2023/08/09 02:36:11;;;;;;;4.88;2.30;;;17.60;53.90;;;;;;4986889;28;114919;-78
2023/08/09 02:38:39;;;;;;;4.93;2.67;;;17.60;53.80;;;;;;5004972;28;116432;-77
2023/08/09 02:41:06;;;;;;;4.13;2.67;;;17.50;54.10;;;;;;5006384;28;114029;-77
2023/08/09 02:43:36;;;;;;;5.72;2.80;;;17.50;54.20;;;;;;5005274;28;114435;-77
2023/08/09 02:46:06;;;;;;;4.25;2.45;;;17.50;54.50;;;;;;4987771;28;114943;-77
2023/08/09 02:48:34;;;;;;;5.10;2.67;;;17.50;54.60;;;;;;5004161;28;115580;-78
2023/08/09 02:51:01;;;;;;;4.93;3.00;;;17.60;54.40;;;;;;5003956;28;114402;-78
2023/08/09 02:53:38;;;;;;;4.57;2.63;;;17.70;53.90;;;;;;5006082;28;114315;-77
2023/08/09 02:56:05;;;;;;;5.10;3.10;;;17.80;54.30;;;;;;4987066;28;114837;-78
2023/08/09 02:58:32;;;;;;;5.00;2.95;;;17.70;54.00;;;;;;5004862;28;114786;-78
2023/08/09 03:00:59;;;;;;;5.15;2.25;;;17.70;53.60;;;;;;5004272;28;114497;-78
2023/08/09 03:03:26;;;;;;;4.22;2.45;;;17.60;53.70;;;;;;4987863;28;114465;-77
2023/08/09 03:05:54;;;;;;;7.22;2.85;;;17.50;54.30;;;;;;5003445;28;114875;-77
2023/08/09 03:08:21;;;;;;;4.55;2.50;;;17.50;53.90;;;;;;4987538;28;114616;-78
2023/08/09 03:10:48;;;;;;;3.80;2.33;;;17.50;54.30;;;;;;5004772;28;114436;-78
2023/08/09 03:13:16;;;;;;;5.47;2.25;;;17.60;54.50;;;;;;5004587;28;114266;-79
2023/08/09 03:15:43;;;;;;;4.60;2.50;;;17.70;53.90;;;;;;5003209;28;115243;-76
2023/08/09 03:18:10;;;;;;;4.65;2.25;;;17.70;53.60;;;;;;5004593;28;114630;-77
2023/08/09 03:20:37;;;;;;;5.57;2.17;;;17.70;53.60;;;;;;4988120;28;114370;-78
2023/08/09 03:23:07;;;;;;;4.07;2.33;;;17.70;53.70;;;;;;4987972;28;114384;-78
2023/08/09 03:25:35;;;;;;;5.50;2.30;;;17.60;53.90;;;;;;5005766;28;114879;-77
2023/08/09 03:28:03;;;;;;;4.72;2.00;;;17.70;54.10;;;;;;4990605;28;114689;-78
2023/08/09 03:30:32;;;;;;;7.38;2.45;;;17.70;53.70;;;;;;5007593;28;114128;-79
2023/08/09 03:32:59;;;;;;;3.20;2.10;;;17.60;54.20;;;;;;4991099;28;114122;-79
2023/08/09 03:35:27;;;;;;;6.78;2.13;;;17.60;54.10;;;;;;4990192;28;115058;-77
2023/08/09 03:37:55;;;;;;;4.03;2.03;;;17.60;53.80;;;;;;5007397;28;114644;-78
2023/08/09 03:40:22;;;;;;;4.05;2.20;;;17.60;54.10;;;;;;5008213;28;114343;-77
2023/08/09 03:42:50;;;;;;;3.05;1.90;;;17.60;54.10;;;;;;4974739;28;114460;-76
2023/08/09 03:45:17;;;;;;;3.58;2.30;;;17.60;53.90;;;;;;5007494;28;114895;-78
2023/08/09 03:47:45;;;;;;;4.25;2.20;;;17.40;54.50;;;;;;5006691;28;114766;-78
2023/08/09 03:50:12;;;;;;;4.78;2.05;;;17.40;54.70;;;;;;5007345;28;114070;-78
2023/08/09 03:52:39;;;;;;;6.50;2.13;;;17.40;54.40;;;;;;4991020;28;114344;-77
2023/08/09 03:55:07;;;;;;;3.85;2.22;;;17.40;54.40;;;;;;4989678;28;115531;-78
2023/08/09 03:57:34;;;;;;;4.85;2.83;;;17.40;54.40;;;;;;5006961;28;115134;-78
2023/08/09 04:00:02;;;;;;;5.43;2.10;;;17.50;54.40;;;;;;5007189;28;114518;-77
2023/08/09 04:02:40;;;;;;;4.88;1.92;;;17.40;54.90;;;;;;5007904;28;114263;-77
2023/08/09 04:05:08;;;;;;;5.10;2.08;;;17.50;54.50;;;;;;5006957;28;115371;-77
2023/08/09 04:07:35;;;;;;;4.43;2.25;;;17.50;54.40;;;;;;4989896;28;114470;-77
2023/08/09 04:10:05;;;;;;;4.50;2.50;;;17.50;54.50;;;;;;5007543;28;114256;-77
2023/08/09 04:12:33;;;;;;;4.25;2.22;;;17.40;54.80;;;;;;5007899;28;114289;-77
2023/08/09 04:15:00;;;;;;;4.35;2.10;;;17.40;54.70;;;;;;5005836;28;116523;-77
2023/08/09 04:17:28;;;;;;;4.20;2.35;;;17.50;54.50;;;;;;5007148;28;115819;-76
2023/08/09 04:19:55;;;;;;;3.80;2.08;;;17.50;54.70;;;;;;5006729;28;114422;-76
2023/08/09 04:22:22;;;;;;;5.20;2.50;;;17.50;54.40;;;;;;5007505;28;114425;-77
2023/08/09 04:24:50;;;;;;;4.57;2.03;;;17.50;54.20;;;;;;5007588;28;114823;-77
2023/08/09 04:27:17;;;;;;;5.07;2.10;;;17.50;54.40;;;;;;5007134;28;114560;-77
2023/08/09 04:29:45;;;;;;;5.78;2.78;;;17.50;54.20;;;;;;5007645;28;114053;-78
2023/08/09 04:32:13;;;;;;;3.80;2.33;;;17.50;54.50;;;;;;5006617;28;114344;-78
2023/08/09 04:34:43;;;;;;;3.42;2.08;;;17.50;54.50;;;;;;5007206;28;114827;-78
2023/08/09 04:37:13;;;;;;;4.93;2.40;;;17.50;54.40;;;;;;5004338;28;114690;-77
2023/08/09 04:39:41;;;;;;;4.15;2.33;;;17.40;54.20;;;;;;5006849;28;114378;-78
2023/08/09 04:42:08;;;;;;;2.97;1.92;;;17.30;54.90;;;;;;5008042;28;113999;-78
2023/08/09 04:44:35;;;;;;;3.90;2.00;;;17.30;55.00;;;;;;5006649;28;114933;-77
2023/08/09 04:47:03;;;;;;;3.90;2.17;;;17.40;55.10;;;;;;4989780;28;116067;-78
2023/08/09 04:49:30;;;;;;;4.82;2.13;;;17.60;54.60;;;;;;5008242;28;114091;-77
2023/08/09 04:51:58;;;;;;;2.90;1.90;;;17.70;54.40;;;;;;5006430;28;114377;-78
2023/08/09 04:54:25;;;;;;;3.17;1.83;;;17.90;54.30;;;;;;5006378;28;115088;-78
2023/08/09 04:56:52;;;;;;;4.10;2.35;;;18.10;54.10;;;;;;4972431;28;114623;-78
2023/08/09 04:59:19;;;;;;;3.42;2.08;;;18.30;53.50;;;;;;5007874;28;114498;-78
2023/08/09 05:01:46;;;;;;;5.60;2.13;;;18.50;53.00;;;;;;5006388;28;114300;-79
2023/08/09 05:04:13;;;;;;;3.60;1.88;;;18.60;52.60;;;;;;5005502;28;114848;-78
2023/08/09 05:06:40;;;;;;;3.67;1.77;;;18.50;52.30;;;;;;5006193;28;114637;-79
2023/08/09 05:09:08;;;;;;;4.65;2.00;;;18.50;52.50;;;;;;5007466;28;114373;-76
2023/08/09 05:11:35;;;;;;;3.70;1.70;;;18.40;52.40;;;;;;5007429;28;114406;-77
2023/08/09 05:14:02;;;;;;;3.30;2.13;;;18.30;52.50;;;;;;5005048;28;115480;-77
2023/08/09 05:16:29;;;;;;;3.80;2.22;;;18.30;52.80;;;;;;5006336;28;114602;-77
2023/08/09 05:18:56;;;;;;;5.57;1.90;;;18.30;53.00;;;;;;5006598;28;114328;-79
2023/08/09 05:21:23;;;;;;;4.18;2.05;;;18.30;53.00;;;;;;5007212;28;114182;-78
2023/08/09 05:23:53;;;;;;;4.55;1.90;;;18.50;52.90;;;;;;5006374;28;115422;-77
2023/08/09 05:26:20;;;;;;;5.03;2.28;;;18.60;52.30;;;;;;4988582;28;114541;-78
2023/08/09 05:28:47;;;;;;;3.25;2.28;;;18.70;52.10;;;;;;5005686;28;114260;-78
2023/08/09 05:31:14;;;;;;;5.53;2.42;;;18.70;52.10;;;;;;5006962;28;114142;-77
2023/08/09 05:33:41;;;;;;;4.60;2.25;;;18.70;52.30;;;;;;4971835;28;115385;-78
2023/08/09 05:36:08;;;;;;;4.07;2.30;;;18.80;52.30;;;;;;5006298;28;114678;-78
2023/08/09 05:38:35;;;;;;;4.35;2.20;;;19.00;52.00;;;;;;5006396;28;114322;-79
2023/08/09 05:41:03;;;;;;;5.97;2.20;;;19.30;51.40;;;;;;4989939;28;114301;-79
2023/08/09 05:43:30;;;;;;;5.18;2.30;;;19.40;50.90;;;;;;5005150;28;115040;-78
2023/08/09 05:45:57;;;;;;;5.35;2.00;;;19.60;50.70;;;;;;5005189;28;115020;-78
2023/08/09 05:48:24;;;;;;;4.70;2.50;;;19.80;50.60;;;;;;5005449;28;114401;-78
2023/08/09 05:50:51;;;;;;;6.15;2.63;;;20.00;49.90;;;;;;5007013;28;114329;-75
2023/08/09 05:53:19;;;;;;;5.57;2.90;;;20.00;49.40;;;;;;4972350;28;114877;-77
2023/08/09 05:55:47;;;;;;;5.10;2.97;;;20.00;49.40;;;;;;5006976;28;114578;-78
2023/08/09 05:58:15;;;;;;;4.85;2.72;;;20.10;49.90;;;;;;5008530;28;114201;-78
2023/08/09 06:00:42;;;;;;;4.97;2.60;;;20.20;49.50;;;;;;5008119;28;114361;-77
2023/08/09 06:03:09;;;;;;;6.32;2.60;;;20.30;49.20;;;;;;5005852;28;114975;-77
2023/08/09 06:05:36;;;;;;;5.10;2.50;;;20.40;48.90;;;;;;5005683;28;114683;-78
2023/08/09 06:08:03;;;;;;;5.85;2.53;;;20.50;48.60;;;;;;5005884;28;114100;-78
2023/08/09 06:10:30;;;;;;;6.22;3.08;;;20.70;48.50;;;;;;5006547;28;114676;-78
2023/08/09 06:12:57;;;;;;;7.30;2.90;;;20.90;48.30;;;;;;5004657;28;115044;-78
2023/08/09 06:15:26;;;;;;;7.15;2.65;;;21.20;47.40;;;;;;5004308;28;115952;-79
2023/08/09 06:17:53;;;;;;;7.95;2.53;;;21.30;46.80;;;;;;5006509;28;114296;-78
2023/08/09 06:20:21;;;;;;;6.90;2.50;;;21.40;46.40;;;;;;5006707;28;114191;-78
2023/08/09 06:22:48;;;;;;;3.63;2.20;;;21.60;45.80;;;;;;5004508;28;115778;-78
2023/08/09 06:25:16;;;;;;;4.90;2.35;;;21.80;44.70;;;;;;5005627;28;114784;-78
2023/08/09 06:27:43;;;;;;;4.50;1.85;;;21.80;44.60;;;;;;5006304;28;114180;-78
2023/08/09 06:30:11;;;;;;;4.47;2.17;;;21.90;44.10;;;;;;5006427;28;114358;-79
2023/08/09 06:32:38;;;;;;;7.90;2.53;;;22.10;43.90;;;;;;5005130;28;114916;-79
2023/08/09 06:35:09;;;;;;;4.53;2.42;;;22.30;43.60;;;;;;5006249;28;114665;-78
2023/08/09 06:37:36;;;;;;;5.47;2.97;;;22.50;43.90;;;;;;5005835;28;114296;-79
2023/08/09 06:40:06;;;;;;;4.63;2.00;;;22.60;43.30;;;;;;5005871;28;114408;-77
2023/08/09 06:42:34;;;;;;;3.67;1.92;;;22.60;42.50;;;;;;5004214;28;115635;-79
2023/08/09 06:45:04;;;;;;;2.20;1.20;;;22.60;42.60;;;;;;5003778;28;114684;-78
2023/08/09 06:47:31;;;;;;;4.50;1.52;;;22.80;42.50;;;;;;5006236;28;114170;-79
2023/08/09 06:50:00;;;;;;;3.63;1.73;;;22.80;41.80;;;;;;5006216;28;114375;-78
2023/08/09 06:52:27;;;;;;;3.53;1.65;;;22.80;41.20;;;;;;5005275;28;115506;-79
2023/08/09 06:54:54;;;;;;;3.00;1.60;;;22.70;41.10;;;;;;5003676;28;114575;-79
2023/08/09 06:57:24;;;;;;;3.65;1.40;;;22.60;40.80;;;;;;5005370;28;114147;-79
2023/08/09 06:59:52;;;;;;;4.05;1.50;;;22.50;40.60;;;;;;4989568;28;114249;-78
2023/08/09 07:02:20;;;;;;;3.33;1.65;;;22.30;41.30;;;;;;5008573;28;115355;-79
2023/08/09 07:04:52;;;;;;;4.97;1.50;;;22.30;41.50;;;;;;5008319;28;114932;-79
2023/08/09 07:07:23;;;;;;;6.45;2.13;;;22.30;41.30;;;;;;5009415;28;114123;-77
2023/08/09 07:09:52;;;;;;;3.58;1.70;;;22.30;41.60;;;;;;5008423;28;114122;-78
2023/08/09 07:12:21;;;;;;;4.22;1.90;;;22.20;41.80;;;;;;5011243;28;115457;-77
2023/08/09 07:14:48;;;;;;;3.97;1.50;;;22.20;41.70;;;;;;5009601;28;115132;-78
2023/08/09 07:17:16;;;;;;;5.13;1.73;;;22.20;41.50;;;;;;5009340;28;114308;-79
2023/08/09 07:19:43;;;;;;;2.90;1.40;;;22.10;41.60;;;;;;5009166;28;114106;-76
2023/08/09 07:22:10;;;;;;;4.85;1.63;;;22.00;41.10;;;;;;5007970;28;114926;-78
2023/08/09 07:24:37;;;;;;;2.88;1.50;;;21.90;40.90;;;;;;5007440;28;114606;-78
2023/08/09 07:27:04;;;;;;;3.38;1.52;;;21.80;41.10;;;;;;5008936;28;114326;-79
2023/08/09 07:29:31;;;;;;;5.00;2.90;;;21.80;41.40;;;;;;5007696;28;114244;-78
2023/08/09 07:32:00;;;;;;;10.20;3.00;;;21.70;43.10;;;;;;5007807;28;115024;-79
2023/08/09 07:34:28;;;;;;;6.40;3.05;;;21.70;44.20;;;;;;5006957;28;114732;-79
2023/08/09 07:36:55;;;;;;;5.82;3.00;;;21.70;44.50;;;;;;5008346;28;114157;-78
2023/08/09 07:39:25;;;;;;;4.90;3.00;;;21.70;44.80;;;;;;5008850;28;114266;-79
2023/08/09 07:41:52;;;;;;;5.82;2.88;;;21.70;44.30;;;;;;5007507;28;116735;-79
2023/08/09 07:44:19;;;;;;;4.43;2.38;;;21.60;44.50;;;;;;5007927;28;114908;-77
2023/08/09 07:46:46;;;;;;;5.90;2.38;;;21.60;44.70;;;;;;5008023;28;114401;-78
2023/08/09 07:49:13;;;;;;;4.97;2.38;;;21.70;44.20;;;;;;5009375;28;114167;-78
2023/08/09 07:51:41;;;;;;;5.57;2.35;;;21.80;44.20;;;;;;5007759;28;114902;-78
2023/08/09 07:54:08;;;;;;;4.47;2.30;;;21.80;44.70;;;;;;5007628;28;115024;-78
2023/08/09 07:56:35;;;;;;;5.20;2.50;;;22.00;44.40;;;;;;5009795;28;114233;-79
2023/08/09 07:59:02;;;;;;;5.25;2.35;;;22.00;44.70;;;;;;5009640;28;114054;-79
2023/08/09 08:01:30;;;;;;;4.68;2.30;;;22.10;44.60;;;;;;5008007;28;115072;-78
2023/08/09 08:03:57;;;;;;;4.70;2.38;;;22.20;44.00;;;;;;5007786;28;114748;-78
2023/08/09 08:06:24;;;;;;;6.25;2.45;;;22.30;43.80;;;;;;5007249;28;114264;-78
2023/08/09 08:08:51;;;;;;;5.90;2.08;;;22.50;43.40;;;;;;5008642;28;114488;-78
2023/08/09 08:11:18;;;;;;;4.68;2.03;;;22.50;43.00;;;;;;5005749;28;114998;-78
2023/08/09 08:13:45;;;;;;;5.13;2.30;;;22.50;42.20;;;;;;5007499;28;115408;-78
2023/08/09 08:16:12;;;;;;;3.83;2.33;;;22.50;42.30;;;;;;5008278;28;114285;-79
2023/08/09 08:18:39;;;;;;;5.10;1.83;;;22.60;42.00;;;;;;5007948;28;114155;-77
2023/08/09 08:21:07;;;;;;;5.28;2.90;;;22.70;41.80;;;;;;5007417;28;116151;-77
2023/08/09 08:23:34;;;;;;;6.55;2.95;;;22.70;42.20;;;;;;5007430;28;114679;-79
2023/08/09 08:26:02;;;;;;;4.97;2.53;;;22.70;43.00;;;;;;5008671;28;114417;-77
2023/08/09 08:28:30;;;;;;;5.65;2.40;;;22.60;43.40;;;;;;5007676;28;114446;-78
2023/08/09 08:30:57;;;;;;;5.20;2.63;;;22.60;42.90;;;;;;5007268;28;114928;-79
2023/08/09 08:33:24;;;;;;;4.47;2.70;;;22.70;42.80;;;;;;4989506;28;114748;-78
2023/08/09 08:35:51;;;;;;;6.55;3.22;;;22.80;41.70;;;;;;5006671;28;114307;-78
2023/08/09 08:38:39;;;;;;;6.75;2.25;;;22.70;42.10;;;;;;5008379;28;114694;-78
2023/08/09 08:41:06;;;;;;;7.25;2.55;;;22.80;41.80;;;;;;5007673;28;114930;-78
2023/08/09 08:43:34;;;;;;;4.30;2.72;;;22.80;41.50;;;;;;4989149;28;117718;-78
2023/08/09 08:46:02;;;;;;;5.30;2.55;;;22.70;41.50;;;;;;4990325;28;114347;-78
2023/08/09 08:48:34;;;;;;;5.30;2.42;;;22.70;41.90;;;;;;4972570;28;114283;-78
2023/08/09 08:51:02;;;;;;;7.03;2.75;;;22.60;41.90;;;;;;5004497;28;115050;-78
2023/08/09 08:53:29;;;;;;;5.15;2.30;;;22.60;42.70;;;;;;4987613;28;116004;-79
2023/08/09 08:55:56;;;;;;;3.25;2.10;;;22.70;42.80;;;;;;5005668;28;114402;-78
2023/08/09 08:58:24;;;;;;;3.60;2.25;;;22.70;41.50;;;;;;5005486;28;114592;-79
2023/08/09 09:00:51;;;;;;;3.85;2.03;;;22.60;41.40;;;;;;5004084;28;115260;-79
2023/08/09 09:03:18;;;;;;;4.10;1.80;;;22.60;41.40;;;;;;5004549;28;115153;-78
2023/08/09 09:05:45;;;;;;;4.13;1.70;;;22.50;41.00;;;;;;5005884;28;114252;-79
2023/08/09 09:08:13;;;;;;;4.35;1.95;;;22.50;41.70;;;;;;5004830;28;114605;-79
2023/08/09 09:10:44;;;;;;;4.72;1.80;;;22.40;41.50;;;;;;4988164;28;115638;-79
2023/08/09 09:13:27;;;;;;;3.30;1.67;;;22.30;40.70;;;;;;5004127;28;114857;-76
2023/08/09 09:15:54;;;;;;;3.55;1.92;;;22.30;41.30;;;;;;4972867;28;114387;-76
2023/08/09 09:18:22;;;;;;;2.88;1.60;;;22.20;41.30;;;;;;5005939;28;114510;-78
2023/08/09 09:20:49;;;;;;;3.33;1.70;;;22.10;41.50;;;;;;5004967;28;116362;-78
2023/08/09 09:23:27;;;;;;;3.17;1.80;;;22.00;41.40;;;;;;5005649;28;114658;-78
2023/08/09 09:26:10;;;;;;;3.42;1.85;;;22.00;41.90;;;;;;5005060;28;114301;-78
2023/08/09 09:28:48;;;;;;;4.85;2.17;;;22.00;42.00;;;;;;5006887;28;114233;-78
2023/08/09 09:31:19;;;;;;;5.35;2.50;;;21.90;42.10;;;;;;4988569;28;115004;-77
2023/08/09 09:33:49;;;;;;;4.10;2.50;;;21.80;42.00;;;;;;4988734;28;115145;-78
2023/08/09 09:36:17;;;;;;;5.03;2.75;;;21.80;42.30;;;;;;5005937;28;114227;-77
2023/08/09 09:38:44;;;;;;;4.78;3.20;;;21.80;42.60;;;;;;5006452;28;114569;-78
2023/08/09 09:41:12;;;;;;;6.47;4.00;;;21.80;42.70;;;;;;4955395;28;118312;-78
2023/08/09 09:43:41;;;;;;;5.45;3.65;;;21.70;42.40;;;;;;4988394;28;114706;-78
2023/08/09 09:46:25;;;;;;;6.85;3.63;;;21.70;42.10;;;;;;5005342;28;114249;-78
2023/08/09 09:49:03;;;;;;;;;;;21.60;42.70;;;;;;5006914;28;114368;-79
2023/08/09 09:51:33;;;;;;;6.07;3.30;;;21.30;43.20;;;;;;5003732;28;115415;-79
2023/08/09 09:54:00;;;;;;;4.97;3.33;;;21.30;43.30;;;;;;5005321;28;115468;-78
2023/08/09 09:56:27;;;;;;;6.00;3.05;;;21.20;43.30;;;;;;5005509;28;114334;-78
2023/08/09 09:58:54;;;;;;;5.93;3.45;;;21.00;43.60;;;;;;5006429;28;114276;-77
2023/08/09 10:01:25;;;;;;;4.47;2.67;;;20.90;44.30;;;;;;4987813;28;115102;-79
2023/08/09 10:04:00;;;;;;;7.28;2.28;;;20.80;44.60;;;;;;5005215;28;115797;-79
2023/08/09 10:06:28;;;;;;;4.65;2.03;;;20.80;45.80;;;;;;5006369;28;114213;-78
2023/08/09 10:08:56;;;;;;;4.82;2.40;;;20.80;46.90;;;;;;5006474;28;114406;-78
2023/08/09 10:11:24;;;;;;;5.15;2.20;;;20.60;47.60;;;;;;5004280;28;115523;-79
2023/08/09 10:13:52;;;;;;;3.85;2.15;;;20.50;48.00;;;;;;5004168;28;114648;-78
2023/08/09 10:16:20;;;;;;;3.92;2.20;;;20.40;48.20;;;;;;4988236;28;114165;-79
2023/08/09 10:18:52;;;;;;;4.88;1.90;;;20.30;47.90;;;;;;5005906;28;114546;-79
2023/08/09 10:21:19;;;;;;;4.32;2.10;;;20.30;49.50;;;;;;5004073;28;115180;-79
2023/08/09 10:23:57;;;;;;;3.97;2.25;;;20.30;50.30;;;;;;4987359;28;114742;-80
2023/08/09 10:26:28;;;;;;;3.38;1.95;;;20.30;50.70;;;;;;5004786;28;114210;-77
2023/08/09 10:29:10;;;;;;;4.63;2.50;;;20.20;50.90;;;;;;5004651;28;114318;-77
2023/08/09 10:32:04;;;;;;;3.95;2.65;;;20.20;51.10;;;;;;5005130;28;114949;-77
2023/08/09 10:34:41;;;;;;;4.78;2.50;;;20.20;51.50;;;;;;5007371;28;114603;-77
2023/08/09 10:37:12;;;;;;;4.80;2.15;;;20.20;52.20;;;;;;5009259;28;114306;-77
2023/08/09 10:39:39;;;;;;;5.80;2.58;;;20.20;51.80;;;;;;5009575;28;114493;-77
2023/08/09 10:42:10;;;;;;;4.20;2.55;;;20.20;52.00;;;;;;5008241;28;115013;-77
2023/08/09 10:44:44;;;;;;;3.50;2.13;;;20.20;52.30;;;;;;4990880;28;114578;-77
2023/08/09 10:47:13;;;;;;;3.10;1.92;;;20.30;53.30;;;;;;5010053;28;114103;-77
2023/08/09 10:49:46;;;;;;;3.70;2.30;;;20.30;53.80;;;;;;5008707;28;114364;-77
2023/08/09 10:52:17;;;;;;;5.10;2.78;;;20.30;53.50;;;;;;5008865;28;115038;-77
2023/08/09 10:54:50;;;;;;;3.90;2.45;;;20.30;54.10;;;;;;5008769;28;114764;-77
2023/08/09 10:57:18;;;;;;;3.97;2.42;;;20.40;52.60;;;;;;4991438;28;114306;-77
2023/08/09 10:59:54;;;;;;;4.38;2.50;;;20.30;52.50;;;;;;5009517;28;114506;-78
2023/08/09 11:02:22;;;;;;;4.03;2.00;;;20.30;52.20;;;;;;5007403;28;114900;-77
2023/08/09 11:04:49;;;;;;;3.90;2.08;;;20.30;52.60;;;;;;5008854;28;114550;-77
2023/08/09 11:07:19;;;;;;;4.30;2.42;;;20.20;53.10;;;;;;5007652;28;114106;-77
2023/08/09 11:09:47;;;;;;;3.83;2.33;;;20.20;53.30;;;;;;5008720;28;114609;-78
2023/08/09 11:12:16;;;;;;;4.07;2.50;;;20.10;54.20;;;;;;5009401;28;114814;-78
2023/08/09 11:14:45;;;;;;;3.65;2.17;;;20.20;54.30;;;;;;5008161;28;114585;-78
2023/08/09 11:17:13;;;;;;;5.28;2.50;;;20.20;54.40;;;;;;5007897;28;114603;-78
2023/08/09 11:19:40;;;;;;;5.88;2.47;;;20.20;54.70;;;;;;5009345;28;114055;-78
2023/08/09 11:22:07;;;;;;;3.08;2.00;;;20.20;54.10;;;;;;5008093;28;114942;-78
2023/08/09 11:24:35;;;;;;;4.13;2.00;;;20.20;53.60;;;;;;5007171;28;114491;-77
2023/08/09 11:27:03;;;;;;;3.75;2.00;;;20.20;54.00;;;;;;5007605;28;114352;-78
2023/08/09 11:29:30;;;;;;;4.20;2.17;;;20.20;54.40;;;;;;5008779;28;114114;-79
2023/08/09 11:31:57;;;;;;;3.17;1.95;;;20.10;53.20;;;;;;5005709;28;115110;-79
2023/08/09 11:34:26;;;;;;;3.47;2.15;;;20.10;54.00;;;;;;5007737;28;114634;-78
2023/08/09 11:36:54;;;;;;;2.90;1.90;;;20.20;54.00;;;;;;5008611;28;114222;-77
2023/08/09 11:39:23;;;;;;;3.65;2.00;;;20.20;54.40;;;;;;5008665;28;114184;-78
2023/08/09 11:41:51;;;;;;;3.65;1.90;;;20.30;53.70;;;;;;5007387;28;114939;-78
2023/08/09 11:44:24;;;;;;;3.85;2.00;;;20.30;53.60;;;;;;5007255;28;115554;-79
2023/08/09 11:46:55;;;;;;;5.87;1.90;;;20.30;53.20;;;;;;5008178;28;114211;-79
2023/08/09 11:49:26;;;;;;;3.72;1.90;;;20.30;53.40;;;;;;5008428;28;114284;-78
2023/08/09 11:51:53;;;;;;;3.88;1.63;;;20.30;53.30;;;;;;5006210;28;114887;-79
2023/08/09 11:54:21;;;;;;;2.67;1.50;;;20.20;53.00;;;;;;5006437;28;114821;-79
2023/08/09 11:56:49;;;;;;;4.25;1.45;;;20.20;53.10;;;;;;4990725;28;114142;-78
2023/08/09 11:59:17;;;;;;;3.05;1.20;;;20.20;52.50;;;;;;5007431;28;114367;-79
2023/08/09 12:01:51;;;;;;;3.13;1.20;;;20.20;52.10;;;;;;5007505;28;115185;-79
2023/08/09 12:04:23;;;;;;;1.88;1.20;;;20.20;52.00;;;;;;5008183;28;115122;-78
2023/08/09 12:06:56;;;;;;;2.90;1.23;;;20.30;51.80;;;;;;5008708;28;114270;-78
2023/08/09 12:09:36;;;;;;;2.33;1.20;;;20.30;52.20;;;;;;5008288;28;114232;-77
2023/08/09 12:12:11;;;;;;;2.28;1.25;;;20.50;51.60;;;;;;5007238;28;114823;-76
2023/08/09 12:14:45;;;;;;;2.85;1.60;;;20.40;51.60;;;;;;5007795;28;115165;-78
2023/08/09 12:17:21;;;;;;;2.58;1.33;;;20.60;51.10;;;;;;5007462;28;114365;-78
2023/08/09 12:19:51;;;;;;;3.17;1.67;;;20.70;51.00;;;;;;5008270;28;114085;-77
2023/08/09 12:22:19;;;;;;;2.13;1.38;;;20.60;51.20;;;;;;5005942;28;115269;-78
2023/08/09 12:24:46;;;;;;;2.00;1.20;;;20.60;50.80;;;;;;5007083;28;114597;-79
2023/08/09 12:27:14;;;;;;;2.03;1.20;;;20.50;50.30;;;;;;5006750;28;114209;-78
2023/08/09 12:29:42;;;;;;;2.30;1.23;;;20.50;51.10;;;;;;5007903;28;114082;-77
2023/08/09 12:32:09;;;;;;;2.47;1.45;;;20.50;50.90;;;;;;5006866;28;115006;-80
2023/08/09 12:34:36;;;;;;;3.35;1.30;;;20.40;50.10;;;;;;5006865;28;114871;-79
2023/08/09 12:37:04;;;;;;;2.38;1.27;;;20.30;50.10;;;;;;5007538;28;114167;-76
2023/08/09 12:39:31;;;;;;;2.75;1.50;;;20.30;49.80;;;;;;5007226;28;114241;-77
2023/08/09 12:41:59;;;;;;;2.67;1.50;;;20.30;50.00;;;;;;5005820;28;114944;-78
2023/08/09 12:44:27;;;;;;;3.03;1.65;;;20.30;50.20;;;;;;5005642;28;115237;-78